sensor_id;sensor_type;location;lat;lon;timestamp;P1;durP1;ratioP1;P2;durP2;ratioP2
2884;SDS011;54691;48.262;11.586;2023-07-16T00:01:30;6.53;;;3.87;;
2884;SDS011;54691;48.262;11.586;2023-07-16T00:05:11;6.08;;;3.70;;
2884;SDS011;54691;48.262;11.586;2023-07-16T00:08:47;6.55;;;3.55;;
2884;SDS011;54691;48.262;11.586;2023-07-16T00:19:26;8.03;;;3.35;;
2884;SDS011;54691;48.262;11.586;2023-07-16T00:27:09;11.08;;;4.22;;
2884;SDS011;54691;48.262;11.586;2023-07-16T00:35:30;9.60;;;4.83;;
2884;SDS011;54691;48.262;11.586;2023-07-16T00:38:55;9.25;;;4.92;;
2884;SDS011;54691;48.262;11.586;2023-07-16T00:42:50;9.43;;;4.90;;
2884;SDS011;54691;48.262;11.586;2023-07-16T00:57:39;7.75;;;3.80;;
2884;SDS011;54691;48.262;11.586;2023-07-16T01:05:13;10.38;;;5.12;;
2884;SDS011;54691;48.262;11.586;2023-07-16T01:13:13;12.95;;;5.53;;
2884;SDS011;54691;48.262;11.586;2023-07-16T01:20:34;9.70;;;4.10;;
2884;SDS011;54691;48.262;11.586;2023-07-16T01:31:38;10.20;;;3.62;;
2884;SDS011;54691;48.262;11.586;2023-07-16T01:42:14;17.12;;;4.45;;
2884;SDS011;54691;48.262;11.586;2023-07-16T01:49:18;30.60;;;6.28;;
2884;SDS011;54691;48.262;11.586;2023-07-16T01:52:51;10.30;;;4.80;;
2884;SDS011;54691;48.262;11.586;2023-07-16T01:56:35;12.00;;;5.30;;
2884;SDS011;54691;48.262;11.586;2023-07-16T02:00:15;12.90;;;5.50;;
2884;SDS011;54691;48.262;11.586;2023-07-16T02:03:45;12.80;;;5.60;;
2884;SDS011;54691;48.262;11.586;2023-07-16T02:10:47;15.85;;;5.70;;
2884;SDS011;54691;48.262;11.586;2023-07-16T02:17:56;11.20;;;4.85;;
2884;SDS011;54691;48.262;11.586;2023-07-16T02:21:53;10.20;;;5.10;;
2884;SDS011;54691;48.262;11.586;2023-07-16T02:25:22;9.20;;;5.10;;
2884;SDS011;54691;48.262;11.586;2023-07-16T02:29:01;18.15;;;6.50;;
2884;SDS011;54691;48.262;11.586;2023-07-16T02:32:35;16.70;;;6.20;;
2884;SDS011;54691;48.262;11.586;2023-07-16T02:36:08;13.10;;;5.60;;
2884;SDS011;54691;48.262;11.586;2023-07-16T02:43:12;10.53;;;5.58;;
2884;SDS011;54691;48.262;11.586;2023-07-16T02:47:06;12.60;;;6.27;;
2884;SDS011;54691;48.262;11.586;2023-07-16T02:50:46;13.70;;;6.30;;
2884;SDS011;54691;48.262;11.586;2023-07-16T02:54:16;13.00;;;5.10;;
2884;SDS011;54691;48.262;11.586;2023-07-16T02:58:01;10.60;;;5.23;;
2884;SDS011;54691;48.262;11.586;2023-07-16T03:09:24;15.83;;;6.05;;
2884;SDS011;54691;48.262;11.586;2023-07-16T03:20:05;18.85;;;5.47;;
2884;SDS011;54691;48.262;11.586;2023-07-16T03:23:42;10.20;;;3.80;;
2884;SDS011;54691;48.262;11.586;2023-07-16T03:27:16;9.00;;;3.80;;
2884;SDS011;54691;48.262;11.586;2023-07-16T03:34:18;4.65;;;2.02;;
2884;SDS011;54691;48.262;11.586;2023-07-16T03:37:54;3.25;;;1.30;;
2884;SDS011;54691;48.262;11.586;2023-07-16T03:41:41;1.90;;;1.27;;
2884;SDS011;54691;48.262;11.586;2023-07-16T03:53:17;2.75;;;1.20;;
2884;SDS011;54691;48.262;11.586;2023-07-16T04:36:38;3.72;;;1.27;;
2884;SDS011;54691;48.262;11.586;2023-07-16T04:40:27;2.87;;;1.45;;
2884;SDS011;54691;48.262;11.586;2023-07-16T04:47:35;4.85;;;1.30;;
2884;SDS011;54691;48.262;11.586;2023-07-16T04:51:22;2.42;;;1.42;;
2884;SDS011;54691;48.262;11.586;2023-07-16T04:55:11;2.45;;;1.45;;
2884;SDS011;54691;48.262;11.586;2023-07-16T05:02:40;1.45;;;1.05;;
2884;SDS011;54691;48.262;11.586;2023-07-16T05:06:18;1.70;;;1.20;;
2884;SDS011;54691;48.262;11.586;2023-07-16T05:10:29;2.83;;;1.50;;
2884;SDS011;54691;48.262;11.586;2023-07-16T05:17:57;3.42;;;1.20;;
2884;SDS011;54691;48.262;11.586;2023-07-16T05:21:34;4.47;;;1.20;;
2884;SDS011;54691;48.262;11.586;2023-07-16T05:25:19;2.37;;;1.40;;
2884;SDS011;54691;48.262;11.586;2023-07-16T05:36:04;2.90;;;1.80;;
2884;SDS011;54691;48.262;11.586;2023-07-16T05:46:35;5.45;;;1.15;;
2884;SDS011;54691;48.262;11.586;2023-07-16T05:53:36;2.90;;;1.20;;
2884;SDS011;54691;48.262;11.586;2023-07-16T06:00:48;3.05;;;1.20;;
2884;SDS011;54691;48.262;11.586;2023-07-16T06:12:18;1.42;;;1.15;;
2884;SDS011;54691;48.262;11.586;2023-07-16T06:16:03;2.40;;;1.40;;
2884;SDS011;54691;48.262;11.586;2023-07-16T06:30:53;2.27;;;1.30;;
2884;SDS011;54691;48.262;11.586;2023-07-16T06:35:36;1.62;;;1.20;;
2884;SDS011;54691;48.262;11.586;2023-07-16T06:39:34;3.10;;;1.22;;
2884;SDS011;54691;48.262;11.586;2023-07-16T06:47:22;4.45;;;1.50;;
2884;SDS011;54691;48.262;11.586;2023-07-16T06:51:50;1.95;;;1.35;;
2884;SDS011;54691;48.262;11.586;2023-07-16T06:55:36;5.37;;;1.57;;
2884;SDS011;54691;48.262;11.586;2023-07-16T07:00:13;3.47;;;1.40;;
2884;SDS011;54691;48.262;11.586;2023-07-16T07:03:47;2.00;;;1.20;;
2884;SDS011;54691;48.262;11.586;2023-07-16T07:17:56;3.22;;;1.30;;
2884;SDS011;54691;48.262;11.586;2023-07-16T07:21:32;2.35;;;1.45;;
2884;SDS011;54691;48.262;11.586;2023-07-16T07:28:31;2.45;;;1.15;;
2884;SDS011;54691;48.262;11.586;2023-07-16T07:35:33;5.87;;;1.70;;
2884;SDS011;54691;48.262;11.586;2023-07-16T07:46:07;2.02;;;1.00;;
2884;SDS011;54691;48.262;11.586;2023-07-16T08:00:17;3.08;;;1.00;;
2884;SDS011;54691;48.262;11.586;2023-07-16T08:07:16;1.17;;;1.00;;
2884;SDS011;54691;48.262;11.586;2023-07-16T09:30:46;2.62;;;1.32;;
2884;SDS011;54691;48.262;11.586;2023-07-16T09:34:44;2.17;;;1.05;;
2884;SDS011;54691;48.262;11.586;2023-07-16T09:46:23;2.50;;;1.12;;
2884;SDS011;54691;48.262;11.586;2023-07-16T09:58:01;1.40;;;1.20;;
2884;SDS011;54691;48.262;11.586;2023-07-16T10:01:40;2.00;;;1.30;;
2884;SDS011;54691;48.262;11.586;2023-07-16T10:05:15;1.60;;;1.20;;
2884;SDS011;54691;48.262;11.586;2023-07-16T10:19:11;1.65;;;1.30;;
2884;SDS011;54691;48.262;11.586;2023-07-16T10:26:09;1.98;;;1.10;;
2884;SDS011;54691;48.262;11.586;2023-07-16T10:33:12;2.05;;;1.17;;
2884;SDS011;54691;48.262;11.586;2023-07-16T10:43:46;4.45;;;1.50;;
2884;SDS011;54691;48.262;11.586;2023-07-16T10:50:39;4.90;;;1.27;;
2884;SDS011;54691;48.262;11.586;2023-07-16T10:57:36;1.60;;;1.30;;
2884;SDS011;54691;48.262;11.586;2023-07-16T11:04:33;2.72;;;1.30;;
2884;SDS011;54691;48.262;11.586;2023-07-16T11:11:32;1.90;;;1.20;;
2884;SDS011;54691;48.262;11.586;2023-07-16T11:18:30;2.80;;;1.55;;
2884;SDS011;54691;48.262;11.586;2023-07-16T11:25:28;1.30;;;1.15;;
2884;SDS011;54691;48.262;11.586;2023-07-16T11:32:35;2.75;;;1.40;;
2884;SDS011;54691;48.262;11.586;2023-07-16T11:36:04;2.10;;;1.40;;
2884;SDS011;54691;48.262;11.586;2023-07-16T11:43:11;1.82;;;1.37;;
2884;SDS011;54691;48.262;11.586;2023-07-16T11:53:36;2.17;;;1.35;;
2884;SDS011;54691;48.262;11.586;2023-07-16T12:00:34;1.85;;;1.35;;
2884;SDS011;54691;48.262;11.586;2023-07-16T12:07:35;1.32;;;1.20;;
2884;SDS011;54691;48.262;11.586;2023-07-16T12:14:32;1.30;;;1.20;;
2884;SDS011;54691;48.262;11.586;2023-07-16T12:21:29;2.52;;;1.47;;
2884;SDS011;54691;48.262;11.586;2023-07-16T12:28:26;3.52;;;1.98;;
2884;SDS011;54691;48.262;11.586;2023-07-16T12:35:23;2.60;;;1.45;;
2884;SDS011;54691;48.262;11.586;2023-07-16T12:42:20;1.45;;;1.30;;
2884;SDS011;54691;48.262;11.586;2023-07-16T12:49:17;2.27;;;1.32;;
2884;SDS011;54691;48.262;11.586;2023-07-16T12:56:20;2.10;;;1.45;;
2884;SDS011;54691;48.262;11.586;2023-07-16T13:03:13;2.58;;;1.45;;
2884;SDS011;54691;48.262;11.586;2023-07-16T13:10:13;3.15;;;1.47;;
2884;SDS011;54691;48.262;11.586;2023-07-16T13:17:11;2.30;;;1.30;;
2884;SDS011;54691;48.262;11.586;2023-07-16T13:24:08;6.40;;;1.50;;
2884;SDS011;54691;48.262;11.586;2023-07-16T13:31:06;1.27;;;1.17;;
2884;SDS011;54691;48.262;11.586;2023-07-16T13:38:03;3.75;;;1.52;;
2884;SDS011;54691;48.262;11.586;2023-07-16T13:45:00;2.52;;;2.02;;
2884;SDS011;54691;48.262;11.586;2023-07-16T13:51:57;1.98;;;1.40;;
2884;SDS011;54691;48.262;11.586;2023-07-16T13:58:54;2.60;;;1.75;;
2884;SDS011;54691;48.262;11.586;2023-07-16T14:05:54;2.27;;;1.35;;
2884;SDS011;54691;48.262;11.586;2023-07-16T14:12:51;5.42;;;1.67;;
2884;SDS011;54691;48.262;11.586;2023-07-16T14:19:49;1.27;;;1.17;;
2884;SDS011;54691;48.262;11.586;2023-07-16T14:26:46;6.62;;;1.80;;
2884;SDS011;54691;48.262;11.586;2023-07-16T14:33:43;2.60;;;1.60;;
2884;SDS011;54691;48.262;11.586;2023-07-16T14:40:40;3.65;;;1.17;;
2884;SDS011;54691;48.262;11.586;2023-07-16T14:47:38;1.55;;;1.45;;
2884;SDS011;54691;48.262;11.586;2023-07-16T14:54:35;4.60;;;1.87;;
2884;SDS011;54691;48.262;11.586;2023-07-16T15:01:32;2.87;;;1.37;;
2884;SDS011;54691;48.262;11.586;2023-07-16T15:08:29;1.95;;;1.75;;
2884;SDS011;54691;48.262;11.586;2023-07-16T15:15:26;2.52;;;1.65;;
2884;SDS011;54691;48.262;11.586;2023-07-16T15:22:23;5.72;;;1.35;;
2884;SDS011;54691;48.262;11.586;2023-07-16T15:29:21;2.55;;;1.70;;
2884;SDS011;54691;48.262;11.586;2023-07-16T15:39:52;2.37;;;1.52;;
2884;SDS011;54691;48.262;11.586;2023-07-16T15:46:50;2.45;;;1.60;;
2884;SDS011;54691;48.262;11.586;2023-07-16T15:53:48;1.47;;;1.37;;
2884;SDS011;54691;48.262;11.586;2023-07-16T16:00:45;3.17;;;1.50;;
2884;SDS011;54691;48.262;11.586;2023-07-16T16:07:43;1.72;;;1.62;;
2884;SDS011;54691;48.262;11.586;2023-07-16T16:14:41;2.05;;;1.60;;
2884;SDS011;54691;48.262;11.586;2023-07-16T16:21:40;4.62;;;1.90;;
2884;SDS011;54691;48.262;11.586;2023-07-16T16:28:37;2.47;;;1.67;;
2884;SDS011;54691;48.262;11.586;2023-07-16T16:35:38;1.77;;;1.50;;
2884;SDS011;54691;48.262;11.586;2023-07-16T16:42:36;2.60;;;1.70;;
2884;SDS011;54691;48.262;11.586;2023-07-16T16:49:33;4.62;;;1.30;;
2884;SDS011;54691;48.262;11.586;2023-07-16T16:56:30;5.37;;;1.50;;
2884;SDS011;54691;48.262;11.586;2023-07-16T17:00:00;2.85;;;1.35;;
2884;SDS011;54691;48.262;11.586;2023-07-16T17:06:57;1.25;;;1.15;;
2884;SDS011;54691;48.262;11.586;2023-07-16T17:17:29;3.25;;;1.50;;
2884;SDS011;54691;48.262;11.586;2023-07-16T17:24:30;1.62;;;1.47;;
2884;SDS011;54691;48.262;11.586;2023-07-16T17:31:33;1.92;;;1.57;;
2884;SDS011;54691;48.262;11.586;2023-07-16T17:42:02;2.65;;;1.60;;
2884;SDS011;54691;48.262;11.586;2023-07-16T17:52:34;3.30;;;1.75;;
2884;SDS011;54691;48.262;11.586;2023-07-16T17:59:49;3.35;;;1.70;;
2884;SDS011;54691;48.262;11.586;2023-07-16T18:06:46;6.12;;;1.70;;
2884;SDS011;54691;48.262;11.586;2023-07-16T18:17:18;4.00;;;1.92;;
2884;SDS011;54691;48.262;11.586;2023-07-16T18:24:15;4.87;;;1.70;;
2884;SDS011;54691;48.262;11.586;2023-07-16T18:31:20;12.80;;;1.77;;
2884;SDS011;54691;48.262;11.586;2023-07-16T18:35:24;2.65;;;1.95;;
2884;SDS011;54691;48.262;11.586;2023-07-16T18:38:56;3.17;;;2.00;;
2884;SDS011;54691;48.262;11.586;2023-07-16T18:50:17;3.58;;;1.85;;
2884;SDS011;54691;48.262;11.586;2023-07-16T18:57:51;3.20;;;2.15;;
2884;SDS011;54691;48.262;11.586;2023-07-16T19:12:13;1.92;;;1.62;;
2884;SDS011;54691;48.262;11.586;2023-07-16T19:20:34;2.10;;;1.50;;
2884;SDS011;54691;48.262;11.586;2023-07-16T19:31:10;3.80;;;1.72;;
2884;SDS011;54691;48.262;11.586;2023-07-16T19:38:10;2.50;;;1.55;;
2884;SDS011;54691;48.262;11.586;2023-07-16T19:45:10;4.67;;;2.05;;
2884;SDS011;54691;48.262;11.586;2023-07-16T19:52:07;4.90;;;1.90;;
2884;SDS011;54691;48.262;11.586;2023-07-16T19:59:05;7.53;;;2.33;;
2884;SDS011;54691;48.262;11.586;2023-07-16T20:06:05;5.03;;;1.55;;
2884;SDS011;54691;48.262;11.586;2023-07-16T20:13:01;3.62;;;1.77;;
2884;SDS011;54691;48.262;11.586;2023-07-16T20:20:03;4.25;;;1.60;;
2884;SDS011;54691;48.262;11.586;2023-07-16T20:27:03;3.52;;;1.55;;
2884;SDS011;54691;48.262;11.586;2023-07-16T20:34:01;2.80;;;1.25;;
2884;SDS011;54691;48.262;11.586;2023-07-16T20:40:58;2.67;;;1.70;;
2884;SDS011;54691;48.262;11.586;2023-07-16T20:47:56;3.22;;;1.90;;
2884;SDS011;54691;48.262;11.586;2023-07-16T20:54:57;3.50;;;1.87;;
2884;SDS011;54691;48.262;11.586;2023-07-16T21:01:54;3.02;;;1.95;;
2884;SDS011;54691;48.262;11.586;2023-07-16T21:08:51;2.75;;;1.50;;
2884;SDS011;54691;48.262;11.586;2023-07-16T21:15:48;6.15;;;1.50;;
2884;SDS011;54691;48.262;11.586;2023-07-16T21:22:45;2.87;;;1.40;;
2884;SDS011;54691;48.262;11.586;2023-07-16T21:29:42;3.22;;;1.95;;
2884;SDS011;54691;48.262;11.586;2023-07-16T21:36:39;2.47;;;1.40;;
2884;SDS011;54691;48.262;11.586;2023-07-16T21:43:36;4.90;;;1.35;;
2884;SDS011;54691;48.262;11.586;2023-07-16T21:50:33;3.62;;;1.80;;
2884;SDS011;54691;48.262;11.586;2023-07-16T21:57:33;2.55;;;1.80;;
2884;SDS011;54691;48.262;11.586;2023-07-16T22:04:30;3.12;;;1.57;;
2884;SDS011;54691;48.262;11.586;2023-07-16T22:11:27;8.18;;;1.75;;
2884;SDS011;54691;48.262;11.586;2023-07-16T22:21:58;6.53;;;1.80;;
2884;SDS011;54691;48.262;11.586;2023-07-16T22:28:55;3.17;;;1.95;;
2884;SDS011;54691;48.262;11.586;2023-07-16T22:35:52;3.42;;;1.60;;
2884;SDS011;54691;48.262;11.586;2023-07-16T22:42:49;5.90;;;1.60;;
2884;SDS011;54691;48.262;11.586;2023-07-16T22:49:51;3.37;;;1.62;;
2884;SDS011;54691;48.262;11.586;2023-07-16T22:56:47;2.50;;;1.62;;
2884;SDS011;54691;48.262;11.586;2023-07-16T23:03:46;5.40;;;1.55;;
2884;SDS011;54691;48.262;11.586;2023-07-16T23:10:43;3.20;;;1.80;;
2884;SDS011;54691;48.262;11.586;2023-07-16T23:17:40;6.92;;;2.02;;
2884;SDS011;54691;48.262;11.586;2023-07-16T23:24:38;2.98;;;1.82;;
2884;SDS011;54691;48.262;11.586;2023-07-16T23:31:35;4.03;;;1.80;;
2884;SDS011;54691;48.262;11.586;2023-07-16T23:38:32;5.30;;;2.02;;
2884;SDS011;54691;48.262;11.586;2023-07-16T23:45:29;2.58;;;1.55;;
2884;SDS011;54691;48.262;11.586;2023-07-16T23:52:26;5.55;;;2.02;;
2884;SDS011;54691;48.262;11.586;2023-07-16T23:59:26;7.95;;;1.90;;
